SpazioLink.com il tuo mini portale

Terremoti in Italia, posizione geografica

Spaziolink il MiniPortale

Home Sfondi Cerca SuperEnalotto Posizione navi Terremoti Directory Video Forum Giochi Meteo Gifs Software
Lista dei terremoti in Italia in tempo reale dopo l'elaborazione dei valori rilevati dai sensori dislocati nelle zone interessate, comprendenti gli eventi sismici di elevata magnitudo sull'intero globo, per visualizzare la posizione dell'epicentro su Google Maps cliccare sul nome del luogo evidenziato in blu.
DATA ORA MAG ≥ 2 ZONA REGIONE LAT LONG PROF km
19/08/2019 01:10:07 ML 2.0 7 km a sud-est di Premilcuore (FC) Emilia Romagna 43.92 11.82 5.3
18/08/2019 15:50:22 ML 2.0 4 km a nord di Scarperia e San Piero (FI) Toscana 44.00 11.31 8.1
18/08/2019 00:01:36 ML 3.6 7 km a sud-est di Premilcuore (FC) Emilia Romagna 43.92 11.82 6.7
17/08/2019 23:35:11 ML 3.5 Isole Eolie (Messina) Mare 38.60 14.73 291.4
17/08/2019 20:04:29 ML 2.2 6 km a sud-est di Premilcuore (FC) Emilia Romagna 43.93 11.82 8.3
17/08/2019 18:54:41 ML 2.9 6 km a sud-est di Premilcuore (FC) Emilia Romagna 43.93 11.81 6.5
17/08/2019 18:52:19 ML 3.7 7 km a sud-est di Premilcuore (FC) Emilia Romagna 43.92 11.81 6.4
17/08/2019 05:02:26 ML 2.2 Confine Slovenia-Croazia (SLOVENIA, CROAZIA) Mondo 45.40 14.32 2.2
17/08/2019 03:43:03 ML 3.0 4 km a nord di Acquasparta (TR) Umbria 42.73 12.55 8.2
17/08/2019 02:38:03 ML 2.2 6 km a ovest di Arquata del Tronto (AP) Marche 42.77 13.22 10.3
17/08/2019 02:33:08 ML 2.4 Costa Siracusana (Siracusa) Mare 37.09 15.66 19.0
16/08/2019 22:15:43 Md 2.1 5 km a sud-est di Massa di Somma (NA) Campania 40.82 14.43 0.4
16/08/2019 21:35:33 ML 2.0 4 km nord-est Colonna (RM) Lazio 41.87 12.77 9.5
16/08/2019 15:05:50 ML 2.3 Costa Croata Settentrionale (CROAZIA) Mare 45.22 14.46 11.3
16/08/2019 08:58:06 ML 2.7 Tirreno Meridionale (MARE) Mare 38.49 15.42 135.2
16/08/2019 01:34:22 ML 2.1 Costa Ionica Catanzarese (Catanzaro) Mare 38.74 16.81 34.3
16/08/2019 00:14:45 ML 2.0 Costa Marchigiana Pesarese (Pesaro-Urbino) Mare 44.00 13.34 3.0
15/08/2019 19:45:12 ML 3.6 Costa Ionica Cosentina (Cosenza) Mare 39.65 16.79 10.8
15/08/2019 19:22:03 ML 2.4 4 km a ovest di Roccadaspide (SA) Campania 40.44 15.16 10.3
15/08/2019 15:04:51 ML 2.4 7 km a nord di Cerreto d'Esi (AN) Marche 43.38 13.00 6.4
15/08/2019 15:04:41 ML 2.2 6 km a ovest di Poggio San Vicino (MC) Marche 43.39 13.01 7.1
15/08/2019 14:53:05 ML 2.7 6 km a ovest di Poggio San Vicino (MC) Marche 43.38 13.00 7.4
15/08/2019 11:54:57 ML 2.2 6 km a nord di Cerreto d'Esi (AN) Marche 43.37 12.99 4.1
15/08/2019 11:53:49 ML 2.5 6 km a ovest di Poggio San Vicino (MC) Marche 43.38 13.01 7.4
15/08/2019 02:58:56 ML 2.0 Costa Ionica Lucana (Matera) Mare 40.24 16.88 6.1
15/08/2019 01:26:23 ML 3.2 2 km nord-est Condofuri (RC) Calabria 38.02 15.88 9.9
14/08/2019 23:39:08 ML 2.2 Costa Marchigiana Pesarese (Pesaro-Urbino) Mare 44.07 13.24 12.1
14/08/2019 22:06:11 ML 2.4 4 km nord-est Cittareale (RI) Lazio 42.64 13.19 12.8
14/08/2019 20:42:37 ML 2.3 4 km nord-est Cittareale (RI) Lazio 42.65 13.19 10.1
14/08/2019 20:37:23 ML 2.1 4 km a ovest di San Cataldo (CL) Sicilia 37.50 13.95 27.7
14/08/2019 20:11:04 ML 3.3 4 km nord-est Cittareale (RI) Lazio 42.64 13.19 12.6
14/08/2019 16:34:41 ML 2.0 Costa Abruzzese-Chieti (Chieti) Mare 42.26 14.84 3.4
14/08/2019 14:40:22 ML 2.0 Costa Abruzzese-Chieti (Chieti) Mare 42.29 14.85 1.7
14/08/2019 12:01:04 ML 2.1 Tirreno Meridionale (MARE) Mare 38.54 13.19 20.3
14/08/2019 11:56:23 ML 2.7 3 km a ovest di Montefiorino (MO) Emilia Romagna 44.36 10.59 8.5
14/08/2019 11:44:31 ML 2.4 3 km nord-est Cittareale (RI) Lazio 42.64 13.19 10.6
14/08/2019 07:24:21 ML 2.7 4 km nord-est Cittareale (RI) Lazio 42.65 13.19 12.5
14/08/2019 06:57:07 ML 2.1 4 km nord-est Cittareale (RI) Lazio 42.65 13.19 11.8
13/08/2019 21:58:44 ML 2.4 6 km a nord-ovest di Tramonti di Sopra (PN) Mondo 46.36 12.75 7.7
13/08/2019 17:51:20 ML 2.5 Mar Ionio Settentrionale (MARE) Mare 38.61 18.10 10.0
13/08/2019 14:26:09 ML 2.7 5 km a ovest di Castelnuovo di Val di Cecina (PI) Toscana 43.22 10.85 2.2
13/08/2019 14:15:02 ML 2.4 3 km a nord-ovest di Castelnuovo di Val di Cecina (PI) Toscana 43.23 10.88 3.1
13/08/2019 13:17:17 ML 3.9 5 km a sud-est di Borgo Val di Taro (PR) Emilia Romagna 44.47 9.82 6.6
13/08/2019 01:25:23 ML 2.3 Tirreno Meridionale (MARE) Mare 38.52 13.42 10.0
12/08/2019 09:57:04 mb 4.9 Crete, Greece (Sea: Greece) Mondo 35.53 25.46 33.6
- traduzioni - freegames - frasi - subnet mask - partners - ipcheck - pagerank - wi-fi - barzellette - favicon - speedtest - programmone - calendariofeste - screenmates -
Locations of visitors to this page